sensor_id;sensor_type;location;lat;lon;timestamp;pressure;altitude;pressure_sealevel;temperature;humidity
48862;BME280;34681;49.188;-0.374;2023-06-14T00:02:08;101081.59;;;21.41;nan
48862;BME280;34681;49.188;-0.374;2023-06-14T00:04:34;101083.00;;;21.24;nan
48862;BME280;34681;49.188;-0.374;2023-06-14T00:07:00;101074.28;;;21.34;nan
48862;BME280;34681;49.188;-0.374;2023-06-14T00:09:25;101079.44;;;21.30;nan
48862;BME280;34681;49.188;-0.374;2023-06-14T00:11:50;101072.03;;;21.09;nan
48862;BME280;34681;49.188;-0.374;2023-06-14T00:14:16;101077.03;;;21.20;nan
48862;BME280;34681;49.188;-0.374;2023-06-14T00:16:41;101069.59;;;21.34;nan
48862;BME280;34681;49.188;-0.374;2023-06-14T00:19:08;101075.31;;;21.19;nan
48862;BME280;34681;49.188;-0.374;2023-06-14T00:21:35;101073.38;;;21.26;nan
48862;BME280;34681;49.188;-0.374;2023-06-14T00:24:01;101068.00;;;21.18;nan
48862;BME280;34681;49.188;-0.374;2023-06-14T00:26:27;101066.38;;;21.30;nan
48862;BME280;34681;49.188;-0.374;2023-06-14T00:28:55;101076.00;;;21.35;nan
48862;BME280;34681;49.188;-0.374;2023-06-14T00:31:24;101075.16;;;21.34;nan
48862;BME280;34681;49.188;-0.374;2023-06-14T00:33:50;101082.38;;;21.22;nan
48862;BME280;34681;49.188;-0.374;2023-06-14T00:36:15;101079.38;;;21.23;nan
48862;BME280;34681;49.188;-0.374;2023-06-14T00:38:41;101079.13;;;21.18;nan
48862;BME280;34681;49.188;-0.374;2023-06-14T00:41:06;101074.56;;;20.97;nan
48862;BME280;34681;49.188;-0.374;2023-06-14T00:43:32;101075.66;;;21.03;nan
48862;BME280;34681;49.188;-0.374;2023-06-14T00:45:57;101078.06;;;21.13;nan
48862;BME280;34681;49.188;-0.374;2023-06-14T00:48:24;101079.66;;;21.28;nan
48862;BME280;34681;49.188;-0.374;2023-06-14T00:50:50;101080.72;;;21.27;nan
48862;BME280;34681;49.188;-0.374;2023-06-14T00:53:18;101077.53;;;21.37;nan
48862;BME280;34681;49.188;-0.374;2023-06-14T00:55:46;101084.16;;;21.43;nan
48862;BME280;34681;49.188;-0.374;2023-06-14T00:58:11;101088.22;;;21.27;nan
48862;BME280;34681;49.188;-0.374;2023-06-14T01:00:37;101085.03;;;21.37;nan
48862;BME280;34681;49.188;-0.374;2023-06-14T01:03:02;101079.28;;;21.45;nan
48862;BME280;34681;49.188;-0.374;2023-06-14T01:05:28;101080.75;;;21.41;nan
48862;BME280;34681;49.188;-0.374;2023-06-14T01:10:55;101092.94;;;21.40;nan
48862;BME280;34681;49.188;-0.374;2023-06-14T01:13:27;101098.00;;;21.23;nan
48862;BME280;34681;49.188;-0.374;2023-06-14T01:15:55;101087.72;;;21.23;nan
48862;BME280;34681;49.188;-0.374;2023-06-14T01:18:22;101092.19;;;21.18;nan
48862;BME280;34681;49.188;-0.374;2023-06-14T01:20:49;101091.41;;;21.30;nan
48862;BME280;34681;49.188;-0.374;2023-06-14T01:23:20;101090.56;;;21.30;nan
48862;BME280;34681;49.188;-0.374;2023-06-14T01:25:46;101087.34;;;21.33;nan
48862;BME280;34681;49.188;-0.374;2023-06-14T01:28:12;101085.56;;;21.25;nan
48862;BME280;34681;49.188;-0.374;2023-06-14T01:30:41;101080.88;;;21.26;nan
48862;BME280;34681;49.188;-0.374;2023-06-14T01:33:11;101076.88;;;21.28;nan
48862;BME280;34681;49.188;-0.374;2023-06-14T01:35:38;101077.97;;;21.41;nan
48862;BME280;34681;49.188;-0.374;2023-06-14T01:38:03;101074.94;;;21.29;nan
48862;BME280;34681;49.188;-0.374;2023-06-14T01:40:31;101075.69;;;21.16;nan
48862;BME280;34681;49.188;-0.374;2023-06-14T01:42:58;101081.16;;;21.38;nan
48862;BME280;34681;49.188;-0.374;2023-06-14T01:45:24;101082.16;;;21.23;nan
48862;BME280;34681;49.188;-0.374;2023-06-14T01:47:50;101077.66;;;21.22;nan
48862;BME280;34681;49.188;-0.374;2023-06-14T01:50:15;101085.38;;;21.20;nan
48862;BME280;34681;49.188;-0.374;2023-06-14T01:52:41;101079.81;;;21.20;nan
48862;BME280;34681;49.188;-0.374;2023-06-14T01:55:06;101078.31;;;21.24;nan
48862;BME280;34681;49.188;-0.374;2023-06-14T01:57:33;101087.03;;;21.15;nan
48862;BME280;34681;49.188;-0.374;2023-06-14T01:59:58;101083.41;;;21.14;nan
48862;BME280;34681;49.188;-0.374;2023-06-14T02:02:23;101076.56;;;21.10;nan
48862;BME280;34681;49.188;-0.374;2023-06-14T02:04:49;101079.13;;;21.18;nan
48862;BME280;34681;49.188;-0.374;2023-06-14T02:07:14;101075.09;;;21.21;nan
48862;BME280;34681;49.188;-0.374;2023-06-14T02:09:40;101075.72;;;21.23;nan
48862;BME280;34681;49.188;-0.374;2023-06-14T02:12:06;101071.41;;;21.14;nan
48862;BME280;34681;49.188;-0.374;2023-06-14T02:14:31;101077.94;;;20.93;nan
48862;BME280;34681;49.188;-0.374;2023-06-14T02:16:57;101066.78;;;20.80;nan
48862;BME280;34681;49.188;-0.374;2023-06-14T02:19:23;101065.53;;;20.89;nan
48862;BME280;34681;49.188;-0.374;2023-06-14T02:21:49;101074.56;;;20.97;nan
48862;BME280;34681;49.188;-0.374;2023-06-14T02:24:14;101062.81;;;21.02;nan
48862;BME280;34681;49.188;-0.374;2023-06-14T02:26:39;101069.81;;;20.91;nan
48862;BME280;34681;49.188;-0.374;2023-06-14T02:29:07;101066.03;;;21.06;nan
48862;BME280;34681;49.188;-0.374;2023-06-14T02:31:35;101060.00;;;20.95;nan
48862;BME280;34681;49.188;-0.374;2023-06-14T02:34:01;101064.06;;;20.99;nan
48862;BME280;34681;49.188;-0.374;2023-06-14T02:36:26;101067.28;;;20.96;nan
48862;BME280;34681;49.188;-0.374;2023-06-14T02:38:51;101064.25;;;20.91;nan
48862;BME280;34681;49.188;-0.374;2023-06-14T02:41:19;101057.66;;;20.99;nan
48862;BME280;34681;49.188;-0.374;2023-06-14T02:43:44;101064.50;;;20.96;nan
48862;BME280;34681;49.188;-0.374;2023-06-14T02:46:10;101062.16;;;21.00;nan
48862;BME280;34681;49.188;-0.374;2023-06-14T02:48:36;101061.25;;;20.93;nan
48862;BME280;34681;49.188;-0.374;2023-06-14T02:51:02;101061.47;;;20.91;nan
48862;BME280;34681;49.188;-0.374;2023-06-14T02:53:27;101069.34;;;20.81;nan
48862;BME280;34681;49.188;-0.374;2023-06-14T02:55:52;101067.88;;;20.92;nan
48862;BME280;34681;49.188;-0.374;2023-06-14T02:58:20;101065.97;;;20.86;nan
48862;BME280;34681;49.188;-0.374;2023-06-14T03:00:46;101066.13;;;20.84;nan
48862;BME280;34681;49.188;-0.374;2023-06-14T03:03:11;101065.75;;;20.87;nan
48862;BME280;34681;49.188;-0.374;2023-06-14T03:05:44;101058.47;;;20.86;nan
48862;BME280;34681;49.188;-0.374;2023-06-14T03:08:15;101064.38;;;20.76;nan
48862;BME280;34681;49.188;-0.374;2023-06-14T03:10:50;101071.47;;;20.79;nan
48862;BME280;34681;49.188;-0.374;2023-06-14T03:13:16;101068.44;;;20.74;nan
48862;BME280;34681;49.188;-0.374;2023-06-14T03:15:42;101061.81;;;20.75;nan
48862;BME280;34681;49.188;-0.374;2023-06-14T03:18:08;101069.78;;;20.78;nan
48862;BME280;34681;49.188;-0.374;2023-06-14T03:20:35;101084.75;;;20.77;nan
48862;BME280;34681;49.188;-0.374;2023-06-14T03:23:01;101076.41;;;20.77;nan
48862;BME280;34681;49.188;-0.374;2023-06-14T03:25:27;101077.59;;;20.68;nan
48862;BME280;34681;49.188;-0.374;2023-06-14T03:27:55;101070.13;;;20.68;nan
48862;BME280;34681;49.188;-0.374;2023-06-14T03:30:20;101069.03;;;20.63;nan
48862;BME280;34681;49.188;-0.374;2023-06-14T03:32:46;101083.78;;;20.63;nan
48862;BME280;34681;49.188;-0.374;2023-06-14T03:35:11;101081.25;;;20.68;nan
48862;BME280;34681;49.188;-0.374;2023-06-14T03:37:42;101077.97;;;20.58;nan
48862;BME280;34681;49.188;-0.374;2023-06-14T03:40:08;101083.06;;;20.48;nan
48862;BME280;34681;49.188;-0.374;2023-06-14T03:42:34;101082.69;;;20.30;nan
48862;BME280;34681;49.188;-0.374;2023-06-14T03:44:59;101082.25;;;20.33;nan
48862;BME280;34681;49.188;-0.374;2023-06-14T03:47:24;101094.81;;;20.50;nan
48862;BME280;34681;49.188;-0.374;2023-06-14T03:49:50;101089.59;;;20.40;nan
48862;BME280;34681;49.188;-0.374;2023-06-14T03:52:15;101093.00;;;20.42;nan
48862;BME280;34681;49.188;-0.374;2023-06-14T03:54:42;101095.78;;;20.36;nan
48862;BME280;34681;49.188;-0.374;2023-06-14T03:57:09;101096.22;;;20.39;nan
48862;BME280;34681;49.188;-0.374;2023-06-14T03:59:35;101095.16;;;20.40;nan
48862;BME280;34681;49.188;-0.374;2023-06-14T04:02:02;101092.09;;;20.35;nan
48862;BME280;34681;49.188;-0.374;2023-06-14T04:04:27;101087.97;;;20.46;nan
48862;BME280;34681;49.188;-0.374;2023-06-14T04:06:53;101095.44;;;20.45;nan
48862;BME280;34681;49.188;-0.374;2023-06-14T04:09:19;101102.63;;;20.40;nan
48862;BME280;34681;49.188;-0.374;2023-06-14T04:11:44;101101.66;;;20.47;nan
48862;BME280;34681;49.188;-0.374;2023-06-14T04:14:09;101094.81;;;20.50;nan
48862;BME280;34681;49.188;-0.374;2023-06-14T04:16:35;101097.91;;;20.62;nan
48862;BME280;34681;49.188;-0.374;2023-06-14T04:19:00;101101.69;;;20.54;nan
48862;BME280;34681;49.188;-0.374;2023-06-14T04:21:26;101107.09;;;20.62;nan
48862;BME280;34681;49.188;-0.374;2023-06-14T04:23:53;101102.13;;;20.58;nan
48862;BME280;34681;49.188;-0.374;2023-06-14T04:26:20;101097.91;;;20.62;nan
48862;BME280;34681;49.188;-0.374;2023-06-14T04:28:46;101107.09;;;20.62;nan
48862;BME280;34681;49.188;-0.374;2023-06-14T04:31:12;101110.75;;;20.63;nan
48862;BME280;34681;49.188;-0.374;2023-06-14T04:33:37;101115.94;;;20.72;nan
48862;BME280;34681;49.188;-0.374;2023-06-14T04:36:11;101121.22;;;20.67;nan
48862;BME280;34681;49.188;-0.374;2023-06-14T04:38:38;101121.66;;;20.64;nan
48862;BME280;34681;49.188;-0.374;2023-06-14T04:41:04;101127.69;;;20.74;nan
48862;BME280;34681;49.188;-0.374;2023-06-14T04:43:30;101127.31;;;20.78;nan
48862;BME280;34681;49.188;-0.374;2023-06-14T04:45:57;101128.47;;;20.96;nan
48862;BME280;34681;49.188;-0.374;2023-06-14T04:48:22;101126.72;;;20.89;nan
48862;BME280;34681;49.188;-0.374;2023-06-14T04:50:48;101139.69;;;20.75;nan
48862;BME280;34681;49.188;-0.374;2023-06-14T04:53:18;101135.97;;;20.96;nan
48862;BME280;34681;49.188;-0.374;2023-06-14T04:55:46;101137.63;;;20.90;nan
48862;BME280;34681;49.188;-0.374;2023-06-14T04:58:11;101140.88;;;20.94;nan
48862;BME280;34681;49.188;-0.374;2023-06-14T05:00:38;101136.41;;;20.99;nan
48862;BME280;34681;49.188;-0.374;2023-06-14T05:03:03;101128.00;;;20.86;nan
48862;BME280;34681;49.188;-0.374;2023-06-14T05:05:31;101137.94;;;21.02;nan
48862;BME280;34681;49.188;-0.374;2023-06-14T05:07:56;101145.50;;;21.21;nan
48862;BME280;34681;49.188;-0.374;2023-06-14T05:10:21;101149.69;;;21.39;nan
48862;BME280;34681;49.188;-0.374;2023-06-14T05:12:46;101150.00;;;21.22;nan
48862;BME280;34681;49.188;-0.374;2023-06-14T05:15:13;101152.44;;;21.32;nan
48862;BME280;34681;49.188;-0.374;2023-06-14T05:17:38;101156.81;;;21.54;nan
48862;BME280;34681;49.188;-0.374;2023-06-14T05:20:06;101154.94;;;21.68;nan
48862;BME280;34681;49.188;-0.374;2023-06-14T05:22:32;101160.09;;;21.78;nan
48862;BME280;34681;49.188;-0.374;2023-06-14T05:24:57;101161.78;;;21.72;nan
48862;BME280;34681;49.188;-0.374;2023-06-14T05:27:22;101164.03;;;22.96;nan
48862;BME280;34681;49.188;-0.374;2023-06-14T05:29:49;101151.19;;;22.62;nan
48862;BME280;34681;49.188;-0.374;2023-06-14T05:32:15;101158.91;;;22.40;nan
48862;BME280;34681;49.188;-0.374;2023-06-14T05:34:40;101163.63;;;22.39;nan
48862;BME280;34681;49.188;-0.374;2023-06-14T05:37:06;101171.13;;;22.26;nan
48862;BME280;34681;49.188;-0.374;2023-06-14T05:39:31;101168.34;;;22.26;nan
48862;BME280;34681;49.188;-0.374;2023-06-14T05:41:56;101166.22;;;22.28;nan
48862;BME280;34681;49.188;-0.374;2023-06-14T05:44:22;101171.34;;;22.24;nan
48862;BME280;34681;49.188;-0.374;2023-06-14T05:46:47;101176.28;;;22.22;nan
48862;BME280;34681;49.188;-0.374;2023-06-14T05:49:12;101176.69;;;22.26;nan
48862;BME280;34681;49.188;-0.374;2023-06-14T05:51:38;101177.56;;;22.33;nan
48862;BME280;34681;49.188;-0.374;2023-06-14T05:54:03;101174.13;;;22.18;nan
48862;BME280;34681;49.188;-0.374;2023-06-14T05:56:28;101179.47;;;22.12;nan
48862;BME280;34681;49.188;-0.374;2023-06-14T05:58:54;101177.56;;;22.26;nan
48862;BME280;34681;49.188;-0.374;2023-06-14T06:01:20;101177.13;;;22.23;nan
48862;BME280;34681;49.188;-0.374;2023-06-14T06:03:45;101179.28;;;22.27;nan
48862;BME280;34681;49.188;-0.374;2023-06-14T06:06:12;101180.78;;;22.23;nan
48862;BME280;34681;49.188;-0.374;2023-06-14T06:08:37;101185.06;;;22.19;nan
48862;BME280;34681;49.188;-0.374;2023-06-14T06:11:02;101191.91;;;22.10;nan
48862;BME280;34681;49.188;-0.374;2023-06-14T06:13:28;101188.28;;;22.09;nan
48862;BME280;34681;49.188;-0.374;2023-06-14T06:15:53;101189.56;;;22.20;nan
48862;BME280;34681;49.188;-0.374;2023-06-14T06:18:18;101195.81;;;22.35;nan
48862;BME280;34681;49.188;-0.374;2023-06-14T06:20:44;101196.00;;;22.34;nan
48862;BME280;34681;49.188;-0.374;2023-06-14T06:23:09;101203.72;;;22.65;nan
48862;BME280;34681;49.188;-0.374;2023-06-14T06:25:35;101199.44;;;22.95;nan
48862;BME280;34681;49.188;-0.374;2023-06-14T06:28:00;101202.00;;;22.97;nan
48862;BME280;34681;49.188;-0.374;2023-06-14T06:30:26;101201.78;;;22.98;nan
48862;BME280;34681;49.188;-0.374;2023-06-14T06:32:52;101201.94;;;23.23;nan
48862;BME280;34681;49.188;-0.374;2023-06-14T06:35:18;101196.34;;;23.37;nan
48862;BME280;34681;49.188;-0.374;2023-06-14T06:37:43;101208.75;;;23.47;nan
48862;BME280;34681;49.188;-0.374;2023-06-14T06:40:09;101206.19;;;23.46;nan
48862;BME280;34681;49.188;-0.374;2023-06-14T06:42:35;101211.06;;;23.70;nan
48862;BME280;34681;49.188;-0.374;2023-06-14T06:45:01;101212.91;;;23.83;nan
48862;BME280;34681;49.188;-0.374;2023-06-14T06:47:26;101210.06;;;23.38;nan
48862;BME280;34681;49.188;-0.374;2023-06-14T06:49:52;101215.25;;;23.93;nan
48862;BME280;34681;49.188;-0.374;2023-06-14T06:52:17;101217.50;;;23.71;nan
48862;BME280;34681;49.188;-0.374;2023-06-14T06:54:43;101217.91;;;24.13;nan
48862;BME280;34681;49.188;-0.374;2023-06-14T06:57:08;101215.44;;;24.29;nan
48862;BME280;34681;49.188;-0.374;2023-06-14T06:59:34;101220.16;;;24.35;nan
48862;BME280;34681;49.188;-0.374;2023-06-14T07:02:00;101220.91;;;24.18;nan
48862;BME280;34681;49.188;-0.374;2023-06-14T07:04:25;101221.41;;;24.40;nan
48862;BME280;34681;49.188;-0.374;2023-06-14T07:06:51;101218.53;;;24.78;nan
48862;BME280;34681;49.188;-0.374;2023-06-14T07:09:16;101213.69;;;24.67;nan
48862;BME280;34681;49.188;-0.374;2023-06-14T07:11:47;101219.66;;;24.95;nan
48862;BME280;34681;49.188;-0.374;2023-06-14T07:14:12;101225.94;;;27.89;nan
48862;BME280;34681;49.188;-0.374;2023-06-14T07:16:38;101236.31;;;28.17;nan
48862;BME280;34681;49.188;-0.374;2023-06-14T07:19:03;101228.28;;;27.81;nan
48862;BME280;34681;49.188;-0.374;2023-06-14T07:21:29;101236.53;;;28.56;nan
48862;BME280;34681;49.188;-0.374;2023-06-14T07:23:55;101240.09;;;30.77;nan
48862;BME280;34681;49.188;-0.374;2023-06-14T07:26:21;101244.19;;;33.30;nan
48862;BME280;34681;49.188;-0.374;2023-06-14T07:28:47;101246.47;;;34.13;nan
48862;BME280;34681;49.188;-0.374;2023-06-14T07:31:14;101247.75;;;36.34;nan
48862;BME280;34681;49.188;-0.374;2023-06-14T07:33:41;101249.84;;;37.91;nan
48862;BME280;34681;49.188;-0.374;2023-06-14T07:36:07;101251.16;;;38.94;nan
48862;BME280;34681;49.188;-0.374;2023-06-14T07:38:32;101255.34;;;40.21;nan
48862;BME280;34681;49.188;-0.374;2023-06-14T07:40:57;101261.16;;;40.55;nan
48862;BME280;34681;49.188;-0.374;2023-06-14T07:43:23;101250.41;;;41.42;nan
48862;BME280;34681;49.188;-0.374;2023-06-14T07:45:48;101247.13;;;39.79;nan
48862;BME280;34681;49.188;-0.374;2023-06-14T07:48:14;101254.00;;;37.39;nan
48862;BME280;34681;49.188;-0.374;2023-06-14T07:50:39;101240.25;;;34.60;nan
48862;BME280;34681;49.188;-0.374;2023-06-14T07:53:04;101255.09;;;37.57;nan
48862;BME280;34681;49.188;-0.374;2023-06-14T07:55:30;101254.66;;;37.63;nan
48862;BME280;34681;49.188;-0.374;2023-06-14T07:57:58;101250.66;;;34.26;nan
48862;BME280;34681;49.188;-0.374;2023-06-14T08:00:23;101260.53;;;31.69;nan
48862;BME280;34681;49.188;-0.374;2023-06-14T08:02:48;101258.09;;;30.98;nan
48862;BME280;34681;49.188;-0.374;2023-06-14T08:05:14;101259.09;;;30.55;nan
48862;BME280;34681;49.188;-0.374;2023-06-14T08:07:39;101256.88;;;32.31;nan
48862;BME280;34681;49.188;-0.374;2023-06-14T08:10:07;101258.41;;;37.91;nan
48862;BME280;34681;49.188;-0.374;2023-06-14T08:12:33;101270.03;;;40.36;nan
48862;BME280;34681;49.188;-0.374;2023-06-14T08:14:59;101272.34;;;41.56;nan
48862;BME280;34681;49.188;-0.374;2023-06-14T08:17:24;101277.81;;;42.87;nan
48862;BME280;34681;49.188;-0.374;2023-06-14T08:19:50;101271.06;;;43.50;nan
48862;BME280;34681;49.188;-0.374;2023-06-14T08:22:15;101267.47;;;43.40;nan
48862;BME280;34681;49.188;-0.374;2023-06-14T08:24:41;101267.81;;;42.85;nan
48862;BME280;34681;49.188;-0.374;2023-06-14T08:27:07;101272.06;;;43.54;nan
48862;BME280;34681;49.188;-0.374;2023-06-14T08:29:32;101273.66;;;44.12;nan
48862;BME280;34681;49.188;-0.374;2023-06-14T08:31:58;101268.00;;;43.34;nan
48862;BME280;34681;49.188;-0.374;2023-06-14T08:34:23;101260.84;;;43.40;nan
48862;BME280;34681;49.188;-0.374;2023-06-14T08:36:52;101271.75;;;42.09;nan
48862;BME280;34681;49.188;-0.374;2023-06-14T08:39:17;101265.84;;;42.35;nan
48862;BME280;34681;49.188;-0.374;2023-06-14T08:41:46;101264.56;;;42.95;nan
48862;BME280;34681;49.188;-0.374;2023-06-14T08:44:14;101267.88;;;42.14;nan
48862;BME280;34681;49.188;-0.374;2023-06-14T08:46:40;101263.28;;;40.24;nan
48862;BME280;34681;49.188;-0.374;2023-06-14T08:49:08;101256.94;;;40.87;nan
48862;BME280;34681;49.188;-0.374;2023-06-14T08:51:36;101269.19;;;42.37;nan
48862;BME280;34681;49.188;-0.374;2023-06-14T08:54:02;101265.22;;;42.50;nan
48862;BME280;34681;49.188;-0.374;2023-06-14T08:56:32;101266.00;;;40.46;nan
48862;BME280;34681;49.188;-0.374;2023-06-14T08:58:59;101259.75;;;40.35;nan
48862;BME280;34681;49.188;-0.374;2023-06-14T09:01:28;101262.94;;;40.17;nan
48862;BME280;34681;49.188;-0.374;2023-06-14T09:03:54;101261.31;;;40.59;nan
48862;BME280;34681;49.188;-0.374;2023-06-14T09:06:20;101261.41;;;40.28;nan
48862;BME280;34681;49.188;-0.374;2023-06-14T09:08:48;101257.72;;;38.94;nan
48862;BME280;34681;49.188;-0.374;2023-06-14T09:11:15;101264.09;;;38.69;nan
48862;BME280;34681;49.188;-0.374;2023-06-14T09:13:42;101254.56;;;37.08;nan
48862;BME280;34681;49.188;-0.374;2023-06-14T09:16:08;101258.81;;;37.11;nan
48862;BME280;34681;49.188;-0.374;2023-06-14T09:18:38;101273.41;;;35.33;nan
48862;BME280;34681;49.188;-0.374;2023-06-14T09:21:06;101259.28;;;35.28;nan
48862;BME280;34681;49.188;-0.374;2023-06-14T09:23:37;101262.72;;;35.54;nan
48862;BME280;34681;49.188;-0.374;2023-06-14T09:26:11;101252.06;;;35.07;nan
48862;BME280;34681;49.188;-0.374;2023-06-14T09:28:47;101260.28;;;34.35;nan
48862;BME280;34681;49.188;-0.374;2023-06-14T09:31:14;101253.56;;;33.05;nan
48862;BME280;34681;49.188;-0.374;2023-06-14T09:33:44;101258.59;;;33.64;nan
48862;BME280;34681;49.188;-0.374;2023-06-14T09:36:17;101258.66;;;32.78;nan
48862;BME280;34681;49.188;-0.374;2023-06-14T09:39:01;101265.94;;;31.70;nan
48862;BME280;34681;49.188;-0.374;2023-06-14T09:41:40;101263.50;;;31.04;nan
48862;BME280;34681;49.188;-0.374;2023-06-14T09:44:10;101265.81;;;31.50;nan
48862;BME280;34681;49.188;-0.374;2023-06-14T09:46:37;101267.97;;;31.00;nan
48862;BME280;34681;49.188;-0.374;2023-06-14T09:49:04;101264.59;;;30.44;nan
48862;BME280;34681;49.188;-0.374;2023-06-14T09:51:30;101269.47;;;30.76;nan
48862;BME280;34681;49.188;-0.374;2023-06-14T09:53:59;101266.22;;;30.94;nan
48862;BME280;34681;49.188;-0.374;2023-06-14T09:56:34;101260.59;;;29.91;nan
48862;BME280;34681;49.188;-0.374;2023-06-14T09:58:59;101255.97;;;29.25;nan
48862;BME280;34681;49.188;-0.374;2023-06-14T10:01:30;101259.53;;;29.37;nan
48862;BME280;34681;49.188;-0.374;2023-06-14T10:04:02;101263.72;;;29.95;nan
48862;BME280;34681;49.188;-0.374;2023-06-14T10:06:29;101250.78;;;30.16;nan
48862;BME280;34681;49.188;-0.374;2023-06-14T10:08:57;101258.34;;;29.93;nan
48862;BME280;34681;49.188;-0.374;2023-06-14T10:11:23;101255.31;;;29.01;nan
48862;BME280;34681;49.188;-0.374;2023-06-14T10:13:50;101263.91;;;28.77;nan
48862;BME280;34681;49.188;-0.374;2023-06-14T10:16:30;101263.78;;;28.39;nan
48862;BME280;34681;49.188;-0.374;2023-06-14T10:22:19;101252.13;;;28.47;nan
48862;BME280;34681;49.188;-0.374;2023-06-14T10:24:50;101255.34;;;28.39;nan
48862;BME280;34681;49.188;-0.374;2023-06-14T10:27:16;101257.91;;;28.00;nan
48862;BME280;34681;49.188;-0.374;2023-06-14T10:32:21;101262.44;;;28.58;nan
48862;BME280;34681;49.188;-0.374;2023-06-14T10:35:04;101257.38;;;28.43;nan
48862;BME280;34681;49.188;-0.374;2023-06-14T10:37:30;101257.47;;;27.80;nan
48862;BME280;34681;49.188;-0.374;2023-06-14T10:39:55;101261.22;;;28.25;nan
48862;BME280;34681;49.188;-0.374;2023-06-14T10:42:21;101257.28;;;29.00;nan
48862;BME280;34681;49.188;-0.374;2023-06-14T10:44:55;101259.22;;;29.33;nan
48862;BME280;34681;49.188;-0.374;2023-06-14T10:47:29;101258.63;;;29.31;nan
48862;BME280;34681;49.188;-0.374;2023-06-14T10:50:07;101254.56;;;28.43;nan
48862;BME280;34681;49.188;-0.374;2023-06-14T10:52:34;101257.94;;;28.74;nan
48862;BME280;34681;49.188;-0.374;2023-06-14T10:57:42;101252.47;;;28.84;nan
48862;BME280;34681;49.188;-0.374;2023-06-14T11:00:10;101244.47;;;29.09;nan
48862;BME280;34681;49.188;-0.374;2023-06-14T11:10:55;101241.00;;;27.60;nan
48862;BME280;34681;49.188;-0.374;2023-06-14T11:13:24;101253.59;;;27.69;nan
48862;BME280;34681;49.188;-0.374;2023-06-14T11:15:50;101248.63;;;27.24;nan
48862;BME280;34681;49.188;-0.374;2023-06-14T11:18:18;101248.84;;;27.46;nan
48862;BME280;34681;49.188;-0.374;2023-06-14T11:20:46;101251.66;;;27.46;nan
48862;BME280;34681;49.188;-0.374;2023-06-14T11:23:11;101243.69;;;27.55;nan
48862;BME280;34681;49.188;-0.374;2023-06-14T11:25:37;101249.09;;;27.56;nan
48862;BME280;34681;49.188;-0.374;2023-06-14T11:28:02;101240.44;;;27.98;nan
48862;BME280;34681;49.188;-0.374;2023-06-14T11:30:27;101242.88;;;28.06;nan
48862;BME280;34681;49.188;-0.374;2023-06-14T11:32:54;101249.44;;;27.71;nan
48862;BME280;34681;49.188;-0.374;2023-06-14T11:35:24;101246.56;;;27.95;nan
48862;BME280;34681;49.188;-0.374;2023-06-14T11:37:56;101243.81;;;27.60;nan
48862;BME280;34681;49.188;-0.374;2023-06-14T11:40:26;101242.16;;;27.12;nan
48862;BME280;34681;49.188;-0.374;2023-06-14T11:43:01;101242.66;;;27.09;nan
48862;BME280;34681;49.188;-0.374;2023-06-14T11:45:27;101244.06;;;27.58;nan
48862;BME280;34681;49.188;-0.374;2023-06-14T11:47:55;101246.97;;;27.63;nan
48862;BME280;34681;49.188;-0.374;2023-06-14T11:50:21;101245.16;;;27.69;nan
48862;BME280;34681;49.188;-0.374;2023-06-14T11:52:55;101239.31;;;27.59;nan
48862;BME280;34681;49.188;-0.374;2023-06-14T11:55:21;101246.31;;;27.09;nan
48862;BME280;34681;49.188;-0.374;2023-06-14T11:57:47;101248.34;;;27.02;nan
48862;BME280;34681;49.188;-0.374;2023-06-14T12:00:13;101248.75;;;27.18;nan
48862;BME280;34681;49.188;-0.374;2023-06-14T12:02:41;101248.50;;;27.31;nan
48862;BME280;34681;49.188;-0.374;2023-06-14T12:05:07;101247.28;;;27.27;nan
48862;BME280;34681;49.188;-0.374;2023-06-14T12:07:36;101240.41;;;27.58;nan
48862;BME280;34681;49.188;-0.374;2023-06-14T12:12:28;101238.44;;;27.82;nan
48862;BME280;34681;49.188;-0.374;2023-06-14T12:14:55;101244.69;;;27.49;nan
48862;BME280;34681;49.188;-0.374;2023-06-14T12:17:23;101242.97;;;27.01;nan
48862;BME280;34681;49.188;-0.374;2023-06-14T12:19:49;101231.50;;;27.37;nan
48862;BME280;34681;49.188;-0.374;2023-06-14T12:22:16;101237.59;;;27.46;nan
48862;BME280;34681;49.188;-0.374;2023-06-14T12:24:45;101242.22;;;27.76;nan
48862;BME280;34681;49.188;-0.374;2023-06-14T12:27:10;101239.19;;;27.54;nan
48862;BME280;34681;49.188;-0.374;2023-06-14T12:29:41;101249.47;;;27.36;nan
48862;BME280;34681;49.188;-0.374;2023-06-14T12:32:09;101252.28;;;27.13;nan
48862;BME280;34681;49.188;-0.374;2023-06-14T12:34:34;101255.34;;;27.11;nan
48862;BME280;34681;49.188;-0.374;2023-06-14T12:37:01;101257.41;;;27.28;nan
48862;BME280;34681;49.188;-0.374;2023-06-14T12:39:28;101250.81;;;26.99;nan
48862;BME280;34681;49.188;-0.374;2023-06-14T12:41:53;101245.03;;;26.94;nan
48862;BME280;34681;49.188;-0.374;2023-06-14T12:44:19;101251.56;;;27.18;nan
48862;BME280;34681;49.188;-0.374;2023-06-14T12:46:45;101249.22;;;27.50;nan
48862;BME280;34681;49.188;-0.374;2023-06-14T12:49:11;101255.22;;;27.06;nan
48862;BME280;34681;49.188;-0.374;2023-06-14T12:51:37;101254.72;;;27.44;nan
48862;BME280;34681;49.188;-0.374;2023-06-14T12:54:03;101249.56;;;27.53;nan
48862;BME280;34681;49.188;-0.374;2023-06-14T12:56:28;101251.44;;;27.48;nan
48862;BME280;34681;49.188;-0.374;2023-06-14T12:58:54;101250.34;;;27.25;nan
48862;BME280;34681;49.188;-0.374;2023-06-14T13:01:19;101260.22;;;27.39;nan
48862;BME280;34681;49.188;-0.374;2023-06-14T13:03:47;101246.31;;;27.09;nan
48862;BME280;34681;49.188;-0.374;2023-06-14T13:06:12;101251.44;;;27.12;nan
48862;BME280;34681;49.188;-0.374;2023-06-14T13:08:37;101253.09;;;26.78;nan
48862;BME280;34681;49.188;-0.374;2023-06-14T13:11:03;101244.19;;;26.81;nan
48862;BME280;34681;49.188;-0.374;2023-06-14T13:13:28;101252.03;;;27.26;nan
48862;BME280;34681;49.188;-0.374;2023-06-14T13:15:53;101249.84;;;27.17;nan
48862;BME280;34681;49.188;-0.374;2023-06-14T13:18:19;101245.19;;;27.22;nan
48862;BME280;34681;49.188;-0.374;2023-06-14T13:20:45;101250.31;;;27.37;nan